»·PEaware :: N314JF KSNA-KRAL

N314JF :: KSNA-KRAL

FLIGHT INFORMATION

Flight Status: Arrived
Operator: Privately registered:
United States
More flights under this callsign
Pilot: Jean Francois S. (616)
Aircraft: CESSNA 206 STATIONAIR
(C206)
More flights by this aircraft type
Origin: KSNA John Wayne-Orange Co
United States
Destination: KRAL Riverside Mun
United States
More flights between these airports :: More routes between these airports
Route: +
File this flight plan on PilotEdge
Remarks:
Altitude:
(Current/Filed)
0ft
Speed:
(Current/Filed)
0kts
Departed: 17-Apr-19 10:32 AM
Arrived: 17-Apr-19 10:51 AM
Distance/Time
Traveled:
27nm/0:19
Distance/Time
To Go:
Arrived

Flight Plot

Page will automatically refresh every two minutes.


Map Options




Map Legend


Flown Route
Filed Route
Departure Airport
Arrival Airport
Navaid (VOR, NDB)
Fix

Horizontal Profiles

Position Reports

Time Latitude Longitude Heading Altitude Ground
Speed
17-Apr-19 10:15 33.671122 -117.873896 27 59ft 0kts
17-Apr-19 10:16 33.671122 -117.873896 27 59ft 0kts
17-Apr-19 10:17 33.671122 -117.873896 27 59ft 0kts
17-Apr-19 10:18 33.671122 -117.873896 27 59ft 0kts
17-Apr-19 10:19 33.671122 -117.873896 27 59ft 0kts
17-Apr-19 10:20 33.671122 -117.873896 27 59ft 0kts
17-Apr-19 10:21 33.671122 -117.873896 27 59ft 0kts
17-Apr-19 10:22 33.671122 -117.873896 27 59ft 0kts
17-Apr-19 10:23 33.671122 -117.873896 27 59ft 0kts
17-Apr-19 10:24 33.671698 -117.872916 45 59ft 12kts
17-Apr-19 10:25 33.673928 -117.871490 30 59ft 17kts
17-Apr-19 10:26 33.676782 -117.869673 28 59ft 18kts
17-Apr-19 10:27 33.680421 -117.867517 30 59ft 18kts
17-Apr-19 10:28 33.680670 -117.867344 29 59ft 0kts
17-Apr-19 10:29 33.681272 -117.866611 116 59ft 9kts
17-Apr-19 10:30 33.681186 -117.866395 115 59ft 1kts
17-Apr-19 10:31 33.677477 -117.867945 211 307ft 75kts
17-Apr-19 10:32 33.667046 -117.880308 265 1752ft 89kts
17-Apr-19 10:33 33.678946 -117.894813 341 1837ft 167kts
17-Apr-19 10:34 33.705256 -117.905403 343 1624ft 189kts
17-Apr-19 10:35 33.729957 -117.887967 54 1733ft 178kts
17-Apr-19 10:36 33.744884 -117.860798 58 2938ft 147kts
17-Apr-19 10:37 33.756917 -117.836202 58 4169ft 130kts
17-Apr-19 10:38 33.769041 -117.812318 56 5351ft 129kts
17-Apr-19 10:39 33.784591 -117.782044 56 5456ft 173kts
17-Apr-19 10:40 33.806907 -117.739087 55 5507ft 181kts
17-Apr-19 10:41 33.826495 -117.701585 55 5507ft 182kts
17-Apr-19 10:42 33.848527 -117.659866 55 4878ft 194kts
17-Apr-19 10:43 33.870919 -117.618251 55 4115ft 194kts
17-Apr-19 10:44 33.893205 -117.577492 55 3358ft 193kts
17-Apr-19 10:45 33.915694 -117.536816 55 2603ft 194kts
17-Apr-19 10:46 33.934316 -117.498676 59 2114ft 186kts
17-Apr-19 10:47 33.942810 -117.462479 104 2103ft 175kts
17-Apr-19 10:48 33.936663 -117.420470 71 2087ft 138kts
17-Apr-19 10:49 33.948341 -117.424069 264 1280ft 100kts
17-Apr-19 10:50 33.951432 -117.439159 279 804ft 20kts
17-Apr-19 10:51 33.950923 -117.439976 170 799ft 5kts
17-Apr-19 10:52 33.950439 -117.438129 101 806ft 7kts
17-Apr-19 10:53 33.950102 -117.436355 100 811ft 9kts
17-Apr-19 10:54 33.950016 -117.434948 10 814ft 0kts
17-Apr-19 10:55 33.950016 -117.434948 10 814ft 0kts
17-Apr-19 10:56 33.950028 -117.434945 10 814ft 0kts
17-Apr-19 10:57 33.950646 -117.435229 281 815ft 0kts
17-Apr-19 10:58 33.951718 -117.445659 285 1521ft 81kts
17-Apr-19 10:59 33.944721 -117.434791 98 1449ft 124kts
17-Apr-19 11:00 33.949362 -117.426857 280 1167ft 67kts
17-Apr-19 11:01 33.951437 -117.439209 282 804ft 24kts
17-Apr-19 11:02 33.953376 -117.455034 247 1494ft 107kts
17-Apr-19 11:03 33.941064 -117.434757 101 1585ft 143kts
17-Apr-19 11:04 33.948908 -117.426459 274 1158ft 80kts
17-Apr-19 11:05 33.951399 -117.439011 283 805ft 16kts

Navigation Log

Ident Type
Flight plan parsing failed, navigation log unavailable